sensor_id;sensor_type;location;lat;lon;timestamp;temperature;humidity
38406;DHT22;24186;50.824;4.314;2022-07-10T00:00:37;23.90;53.30
38406;DHT22;24186;50.824;4.314;2022-07-10T00:03:04;23.90;53.40
38406;DHT22;24186;50.824;4.314;2022-07-10T00:05:31;23.90;53.30
38406;DHT22;24186;50.824;4.314;2022-07-10T00:07:57;23.90;53.30
38406;DHT22;24186;50.824;4.314;2022-07-10T00:10:23;23.90;53.30
38406;DHT22;24186;50.824;4.314;2022-07-10T00:12:51;23.90;53.40
38406;DHT22;24186;50.824;4.314;2022-07-10T00:15:17;23.90;53.40
38406;DHT22;24186;50.824;4.314;2022-07-10T00:17:44;23.90;53.40
38406;DHT22;24186;50.824;4.314;2022-07-10T00:20:11;23.90;53.40
38406;DHT22;24186;50.824;4.314;2022-07-10T00:22:38;23.90;53.40
38406;DHT22;24186;50.824;4.314;2022-07-10T00:25:05;23.90;53.40
38406;DHT22;24186;50.824;4.314;2022-07-10T00:27:31;23.90;53.50
38406;DHT22;24186;50.824;4.314;2022-07-10T00:29:57;23.90;53.50
38406;DHT22;24186;50.824;4.314;2022-07-10T00:32:23;23.90;53.50
38406;DHT22;24186;50.824;4.314;2022-07-10T00:34:49;23.90;53.50
38406;DHT22;24186;50.824;4.314;2022-07-10T00:37:15;23.90;53.50
38406;DHT22;24186;50.824;4.314;2022-07-10T00:39:42;23.90;53.50
38406;DHT22;24186;50.824;4.314;2022-07-10T00:42:12;23.90;53.50
38406;DHT22;24186;50.824;4.314;2022-07-10T00:44:39;23.90;53.60
38406;DHT22;24186;50.824;4.314;2022-07-10T00:47:06;23.90;53.50
38406;DHT22;24186;50.824;4.314;2022-07-10T00:49:34;23.90;53.60
38406;DHT22;24186;50.824;4.314;2022-07-10T00:52:03;23.90;53.30
38406;DHT22;24186;50.824;4.314;2022-07-10T00:54:31;23.80;53.30
38406;DHT22;24186;50.824;4.314;2022-07-10T00:56:58;23.80;53.00
38406;DHT22;24186;50.824;4.314;2022-07-10T00:59:25;23.80;52.90
38406;DHT22;24186;50.824;4.314;2022-07-10T01:01:52;23.80;52.70
38406;DHT22;24186;50.824;4.314;2022-07-10T01:04:17;23.70;52.60
38406;DHT22;24186;50.824;4.314;2022-07-10T01:06:43;23.70;52.50
38406;DHT22;24186;50.824;4.314;2022-07-10T01:09:09;23.70;52.50
38406;DHT22;24186;50.824;4.314;2022-07-10T01:11:37;23.70;52.40
38406;DHT22;24186;50.824;4.314;2022-07-10T01:14:03;23.70;52.30
38406;DHT22;24186;50.824;4.314;2022-07-10T01:16:29;23.70;52.30
38406;DHT22;24186;50.824;4.314;2022-07-10T01:18:56;23.70;52.30
38406;DHT22;24186;50.824;4.314;2022-07-10T01:21:26;23.60;52.20
38406;DHT22;24186;50.824;4.314;2022-07-10T01:23:52;23.60;52.10
38406;DHT22;24186;50.824;4.314;2022-07-10T01:26:19;23.70;52.10
38406;DHT22;24186;50.824;4.314;2022-07-10T01:28:48;23.60;52.10
38406;DHT22;24186;50.824;4.314;2022-07-10T01:31:14;23.60;52.00
38406;DHT22;24186;50.824;4.314;2022-07-10T01:33:41;23.60;52.00
38406;DHT22;24186;50.824;4.314;2022-07-10T01:36:07;23.60;52.00
38406;DHT22;24186;50.824;4.314;2022-07-10T01:38:33;23.60;52.00
38406;DHT22;24186;50.824;4.314;2022-07-10T01:40:58;23.60;51.90
38406;DHT22;24186;50.824;4.314;2022-07-10T01:43:24;23.50;51.90
38406;DHT22;24186;50.824;4.314;2022-07-10T01:45:50;23.60;51.90
38406;DHT22;24186;50.824;4.314;2022-07-10T01:48:16;23.50;51.80
38406;DHT22;24186;50.824;4.314;2022-07-10T01:50:43;23.60;51.90
38406;DHT22;24186;50.824;4.314;2022-07-10T01:53:09;23.50;51.80
38406;DHT22;24186;50.824;4.314;2022-07-10T01:55:36;23.50;51.70
38406;DHT22;24186;50.824;4.314;2022-07-10T01:58:02;23.50;51.70
38406;DHT22;24186;50.824;4.314;2022-07-10T02:00:28;23.50;51.70
38406;DHT22;24186;50.824;4.314;2022-07-10T02:02:54;23.50;51.70
38406;DHT22;24186;50.824;4.314;2022-07-10T02:05:39;23.50;51.70
38406;DHT22;24186;50.824;4.314;2022-07-10T02:08:04;23.50;51.70
38406;DHT22;24186;50.824;4.314;2022-07-10T02:10:31;23.50;51.70
38406;DHT22;24186;50.824;4.314;2022-07-10T02:12:58;23.50;51.70
38406;DHT22;24186;50.824;4.314;2022-07-10T02:15:24;23.50;51.70
38406;DHT22;24186;50.824;4.314;2022-07-10T02:17:49;23.50;51.60
38406;DHT22;24186;50.824;4.314;2022-07-10T02:20:15;23.50;51.60
38406;DHT22;24186;50.824;4.314;2022-07-10T02:22:41;23.50;51.60
38406;DHT22;24186;50.824;4.314;2022-07-10T02:25:08;23.50;51.60
38406;DHT22;24186;50.824;4.314;2022-07-10T02:27:33;23.50;51.60
38406;DHT22;24186;50.824;4.314;2022-07-10T02:29:59;23.40;51.50
38406;DHT22;24186;50.824;4.314;2022-07-10T02:32:25;23.50;51.50
38406;DHT22;24186;50.824;4.314;2022-07-10T02:34:51;23.40;51.50
38406;DHT22;24186;50.824;4.314;2022-07-10T02:37:17;23.50;51.50
38406;DHT22;24186;50.824;4.314;2022-07-10T02:39:43;23.50;51.50
38406;DHT22;24186;50.824;4.314;2022-07-10T02:42:08;23.40;51.50
38406;DHT22;24186;50.824;4.314;2022-07-10T02:44:34;23.40;51.40
38406;DHT22;24186;50.824;4.314;2022-07-10T02:47:00;23.40;51.50
38406;DHT22;24186;50.824;4.314;2022-07-10T02:49:25;23.40;51.40
38406;DHT22;24186;50.824;4.314;2022-07-10T02:51:51;23.40;51.40
38406;DHT22;24186;50.824;4.314;2022-07-10T02:54:18;23.40;51.40
38406;DHT22;24186;50.824;4.314;2022-07-10T02:56:44;23.40;51.40
38406;DHT22;24186;50.824;4.314;2022-07-10T02:59:09;23.40;51.40
38406;DHT22;24186;50.824;4.314;2022-07-10T03:01:35;23.40;51.40
38406;DHT22;24186;50.824;4.314;2022-07-10T03:04:01;23.40;51.40
38406;DHT22;24186;50.824;4.314;2022-07-10T03:06:27;23.40;51.40
38406;DHT22;24186;50.824;4.314;2022-07-10T03:08:52;23.40;51.40
38406;DHT22;24186;50.824;4.314;2022-07-10T03:11:18;23.40;51.40
38406;DHT22;24186;50.824;4.314;2022-07-10T03:13:44;23.40;51.30
38406;DHT22;24186;50.824;4.314;2022-07-10T03:16:10;23.40;51.30
38406;DHT22;24186;50.824;4.314;2022-07-10T03:18:35;23.30;51.30
38406;DHT22;24186;50.824;4.314;2022-07-10T03:21:01;23.30;51.30
38406;DHT22;24186;50.824;4.314;2022-07-10T03:23:27;23.30;51.30
38406;DHT22;24186;50.824;4.314;2022-07-10T03:25:53;23.30;51.30
38406;DHT22;24186;50.824;4.314;2022-07-10T03:28:18;23.40;51.30
38406;DHT22;24186;50.824;4.314;2022-07-10T03:30:44;23.30;51.30
38406;DHT22;24186;50.824;4.314;2022-07-10T03:33:10;23.30;51.30
38406;DHT22;24186;50.824;4.314;2022-07-10T03:35:36;23.30;51.30
38406;DHT22;24186;50.824;4.314;2022-07-10T03:38:01;23.30;51.30
38406;DHT22;24186;50.824;4.314;2022-07-10T03:40:27;23.30;51.30
38406;DHT22;24186;50.824;4.314;2022-07-10T03:42:53;23.30;51.40
38406;DHT22;24186;50.824;4.314;2022-07-10T03:45:19;23.30;51.40
38406;DHT22;24186;50.824;4.314;2022-07-10T03:47:45;23.30;51.40
38406;DHT22;24186;50.824;4.314;2022-07-10T03:50:11;23.30;51.40
38406;DHT22;24186;50.824;4.314;2022-07-10T03:52:36;23.30;51.40
38406;DHT22;24186;50.824;4.314;2022-07-10T03:55:03;23.30;51.40
38406;DHT22;24186;50.824;4.314;2022-07-10T03:57:29;23.30;51.40
38406;DHT22;24186;50.824;4.314;2022-07-10T04:00:14;23.30;51.40
38406;DHT22;24186;50.824;4.314;2022-07-10T04:02:39;23.30;51.40
38406;DHT22;24186;50.824;4.314;2022-07-10T04:05:06;23.30;51.40
38406;DHT22;24186;50.824;4.314;2022-07-10T04:07:33;23.30;51.40
38406;DHT22;24186;50.824;4.314;2022-07-10T04:09:59;23.30;51.40
38406;DHT22;24186;50.824;4.314;2022-07-10T04:12:25;23.30;51.40
38406;DHT22;24186;50.824;4.314;2022-07-10T04:14:51;23.30;51.40
38406;DHT22;24186;50.824;4.314;2022-07-10T04:17:17;23.30;51.40
38406;DHT22;24186;50.824;4.314;2022-07-10T04:19:43;23.30;51.40
38406;DHT22;24186;50.824;4.314;2022-07-10T04:22:10;23.30;51.40
38406;DHT22;24186;50.824;4.314;2022-07-10T04:24:35;23.30;51.40
38406;DHT22;24186;50.824;4.314;2022-07-10T04:27:01;23.20;51.40
38406;DHT22;24186;50.824;4.314;2022-07-10T04:29:27;23.20;51.40
38406;DHT22;24186;50.824;4.314;2022-07-10T04:31:53;23.20;51.40
38406;DHT22;24186;50.824;4.314;2022-07-10T04:34:19;23.20;51.40
38406;DHT22;24186;50.824;4.314;2022-07-10T04:36:45;23.20;51.40
38406;DHT22;24186;50.824;4.314;2022-07-10T04:39:11;23.20;51.40
38406;DHT22;24186;50.824;4.314;2022-07-10T04:41:36;23.20;51.40
38406;DHT22;24186;50.824;4.314;2022-07-10T04:44:02;23.20;51.40
38406;DHT22;24186;50.824;4.314;2022-07-10T04:46:28;23.20;51.40
38406;DHT22;24186;50.824;4.314;2022-07-10T04:48:54;23.20;51.40
38406;DHT22;24186;50.824;4.314;2022-07-10T04:51:20;23.20;51.40
38406;DHT22;24186;50.824;4.314;2022-07-10T04:53:46;23.20;51.50
38406;DHT22;24186;50.824;4.314;2022-07-10T04:56:11;23.20;51.50
38406;DHT22;24186;50.824;4.314;2022-07-10T04:58:37;23.20;51.50
38406;DHT22;24186;50.824;4.314;2022-07-10T05:01:03;23.20;51.50
38406;DHT22;24186;50.824;4.314;2022-07-10T05:03:29;23.20;51.60
38406;DHT22;24186;50.824;4.314;2022-07-10T05:05:54;23.20;51.60
38406;DHT22;24186;50.824;4.314;2022-07-10T05:08:20;23.20;51.60
38406;DHT22;24186;50.824;4.314;2022-07-10T05:10:46;23.10;51.60
38406;DHT22;24186;50.824;4.314;2022-07-10T05:13:12;23.20;51.70
38406;DHT22;24186;50.824;4.314;2022-07-10T05:15:38;23.20;51.70
38406;DHT22;24186;50.824;4.314;2022-07-10T05:18:04;23.20;51.70
38406;DHT22;24186;50.824;4.314;2022-07-10T05:20:30;23.10;51.70
38406;DHT22;24186;50.824;4.314;2022-07-10T05:22:56;23.10;51.70
38406;DHT22;24186;50.824;4.314;2022-07-10T05:25:22;23.10;51.80
38406;DHT22;24186;50.824;4.314;2022-07-10T05:27:48;23.20;51.90
38406;DHT22;24186;50.824;4.314;2022-07-10T05:30:13;23.10;51.80
38406;DHT22;24186;50.824;4.314;2022-07-10T05:32:43;23.10;51.80
38406;DHT22;24186;50.824;4.314;2022-07-10T05:35:09;23.20;51.90
38406;DHT22;24186;50.824;4.314;2022-07-10T05:37:35;23.10;51.90
38406;DHT22;24186;50.824;4.314;2022-07-10T05:40:00;23.20;52.00
38406;DHT22;24186;50.824;4.314;2022-07-10T05:42:26;23.10;52.00
38406;DHT22;24186;50.824;4.314;2022-07-10T05:44:52;23.20;52.10
38406;DHT22;24186;50.824;4.314;2022-07-10T05:47:17;23.20;52.10
38406;DHT22;24186;50.824;4.314;2022-07-10T05:49:43;23.20;52.10
38406;DHT22;24186;50.824;4.314;2022-07-10T05:52:09;23.10;52.10
38406;DHT22;24186;50.824;4.314;2022-07-10T05:54:35;23.20;52.20
38406;DHT22;24186;50.824;4.314;2022-07-10T05:57:00;23.20;52.20
38406;DHT22;24186;50.824;4.314;2022-07-10T05:59:26;23.20;52.30
38406;DHT22;24186;50.824;4.314;2022-07-10T06:01:52;23.10;52.20
38406;DHT22;24186;50.824;4.314;2022-07-10T06:04:17;23.20;52.20
38406;DHT22;24186;50.824;4.314;2022-07-10T06:06:43;23.20;52.20
38406;DHT22;24186;50.824;4.314;2022-07-10T06:09:09;23.20;52.20
38406;DHT22;24186;50.824;4.314;2022-07-10T06:11:35;23.20;52.20
38406;DHT22;24186;50.824;4.314;2022-07-10T06:14:00;23.20;52.10
38406;DHT22;24186;50.824;4.314;2022-07-10T06:16:26;23.20;52.10
38406;DHT22;24186;50.824;4.314;2022-07-10T06:18:52;23.20;52.10
38406;DHT22;24186;50.824;4.314;2022-07-10T06:21:18;23.20;52.10
38406;DHT22;24186;50.824;4.314;2022-07-10T06:23:47;23.20;52.00
38406;DHT22;24186;50.824;4.314;2022-07-10T06:26:13;23.20;52.00
38406;DHT22;24186;50.824;4.314;2022-07-10T06:28:39;23.20;52.00
38406;DHT22;24186;50.824;4.314;2022-07-10T06:31:05;23.10;51.90
38406;DHT22;24186;50.824;4.314;2022-07-10T06:33:31;23.20;52.00
38406;DHT22;24186;50.824;4.314;2022-07-10T06:35:58;23.10;51.90
38406;DHT22;24186;50.824;4.314;2022-07-10T06:38:24;23.10;51.90
38406;DHT22;24186;50.824;4.314;2022-07-10T06:40:50;23.10;51.90
38406;DHT22;24186;50.824;4.314;2022-07-10T06:43:16;23.10;51.90
38406;DHT22;24186;50.824;4.314;2022-07-10T06:45:42;23.10;51.80
38406;DHT22;24186;50.824;4.314;2022-07-10T06:48:08;23.10;51.80
38406;DHT22;24186;50.824;4.314;2022-07-10T06:50:34;23.10;51.90
38406;DHT22;24186;50.824;4.314;2022-07-10T06:53:01;23.10;51.90
38406;DHT22;24186;50.824;4.314;2022-07-10T06:55:28;23.10;51.80
38406;DHT22;24186;50.824;4.314;2022-07-10T06:57:54;23.10;51.80
38406;DHT22;24186;50.824;4.314;2022-07-10T07:00:20;23.10;51.80
38406;DHT22;24186;50.824;4.314;2022-07-10T07:02:46;23.20;51.90
38406;DHT22;24186;50.824;4.314;2022-07-10T07:05:13;23.10;51.80
38406;DHT22;24186;50.824;4.314;2022-07-10T07:07:39;23.10;51.80
38406;DHT22;24186;50.824;4.314;2022-07-10T07:10:05;23.10;51.90
38406;DHT22;24186;50.824;4.314;2022-07-10T07:12:31;23.10;51.90
38406;DHT22;24186;50.824;4.314;2022-07-10T07:14:57;23.10;51.80
38406;DHT22;24186;50.824;4.314;2022-07-10T07:17:23;23.10;51.90
38406;DHT22;24186;50.824;4.314;2022-07-10T07:20:00;23.10;51.90
38406;DHT22;24186;50.824;4.314;2022-07-10T07:22:44;23.10;51.90
38406;DHT22;24186;50.824;4.314;2022-07-10T07:25:29;23.10;51.90
38406;DHT22;24186;50.824;4.314;2022-07-10T07:27:55;23.20;52.50
38406;DHT22;24186;50.824;4.314;2022-07-10T07:30:20;23.10;51.90
38406;DHT22;24186;50.824;4.314;2022-07-10T07:32:46;23.10;51.90
38406;DHT22;24186;50.824;4.314;2022-07-10T07:35:14;23.20;51.90
38406;DHT22;24186;50.824;4.314;2022-07-10T07:37:47;23.10;51.90
38406;DHT22;24186;50.824;4.314;2022-07-10T07:40:15;23.10;51.90
38406;DHT22;24186;50.824;4.314;2022-07-10T07:42:42;23.20;52.00
38406;DHT22;24186;50.824;4.314;2022-07-10T07:45:09;23.20;52.60
38406;DHT22;24186;50.824;4.314;2022-07-10T07:48:05;23.20;52.00
38406;DHT22;24186;50.824;4.314;2022-07-10T07:50:32;23.10;52.00
38406;DHT22;24186;50.824;4.314;2022-07-10T07:52:59;23.20;52.10
38406;DHT22;24186;50.824;4.314;2022-07-10T07:55:26;23.10;52.00
38406;DHT22;24186;50.824;4.314;2022-07-10T07:57:54;23.10;52.10
38406;DHT22;24186;50.824;4.314;2022-07-10T08:00:21;23.20;52.20
38406;DHT22;24186;50.824;4.314;2022-07-10T08:02:51;23.20;52.20
38406;DHT22;24186;50.824;4.314;2022-07-10T08:05:18;23.20;52.30
38406;DHT22;24186;50.824;4.314;2022-07-10T08:07:46;23.20;52.40
38406;DHT22;24186;50.824;4.314;2022-07-10T08:10:15;23.20;52.40
38406;DHT22;24186;50.824;4.314;2022-07-10T08:12:42;23.20;52.40
38406;DHT22;24186;50.824;4.314;2022-07-10T08:15:09;23.20;52.50
38406;DHT22;24186;50.824;4.314;2022-07-10T08:17:36;23.20;52.50
38406;DHT22;24186;50.824;4.314;2022-07-10T08:20:03;23.20;52.50
38406;DHT22;24186;50.824;4.314;2022-07-10T08:22:28;23.20;52.60
38406;DHT22;24186;50.824;4.314;2022-07-10T08:24:54;23.20;52.60
38406;DHT22;24186;50.824;4.314;2022-07-10T08:27:22;23.20;52.60
38406;DHT22;24186;50.824;4.314;2022-07-10T08:29:47;23.20;52.60
38406;DHT22;24186;50.824;4.314;2022-07-10T08:32:13;23.20;52.60
38406;DHT22;24186;50.824;4.314;2022-07-10T08:34:39;23.20;52.60
38406;DHT22;24186;50.824;4.314;2022-07-10T08:37:05;23.30;52.70
38406;DHT22;24186;50.824;4.314;2022-07-10T08:39:31;23.30;52.70
38406;DHT22;24186;50.824;4.314;2022-07-10T08:41:57;23.30;52.70
38406;DHT22;24186;50.824;4.314;2022-07-10T08:44:23;23.30;52.70
38406;DHT22;24186;50.824;4.314;2022-07-10T08:46:49;23.30;52.70
38406;DHT22;24186;50.824;4.314;2022-07-10T08:49:16;23.30;52.70
38406;DHT22;24186;50.824;4.314;2022-07-10T08:51:56;23.30;52.70
38406;DHT22;24186;50.824;4.314;2022-07-10T08:54:23;23.40;52.80
38406;DHT22;24186;50.824;4.314;2022-07-10T08:56:50;23.40;52.80
38406;DHT22;24186;50.824;4.314;2022-07-10T08:59:18;23.40;52.80
38406;DHT22;24186;50.824;4.314;2022-07-10T09:01:44;23.40;52.80
38406;DHT22;24186;50.824;4.314;2022-07-10T09:04:17;23.40;52.80
38406;DHT22;24186;50.824;4.314;2022-07-10T09:06:46;23.40;52.80
38406;DHT22;24186;50.824;4.314;2022-07-10T09:09:12;23.40;52.90
38406;DHT22;24186;50.824;4.314;2022-07-10T09:11:39;23.40;52.90
38406;DHT22;24186;50.824;4.314;2022-07-10T09:14:10;23.40;52.90
38406;DHT22;24186;50.824;4.314;2022-07-10T09:16:38;23.40;53.00
38406;DHT22;24186;50.824;4.314;2022-07-10T09:19:31;23.50;53.00
38406;DHT22;24186;50.824;4.314;2022-07-10T09:22:07;23.50;53.00
38406;DHT22;24186;50.824;4.314;2022-07-10T09:24:39;23.50;53.10
38406;DHT22;24186;50.824;4.314;2022-07-10T09:27:05;23.50;53.10
38406;DHT22;24186;50.824;4.314;2022-07-10T09:29:32;23.50;53.10
38406;DHT22;24186;50.824;4.314;2022-07-10T09:32:00;23.50;53.10
38406;DHT22;24186;50.824;4.314;2022-07-10T09:34:42;23.50;53.10
38406;DHT22;24186;50.824;4.314;2022-07-10T09:44:51;23.60;53.40
38406;DHT22;24186;50.824;4.314;2022-07-10T09:47:23;23.70;53.40
38406;DHT22;24186;50.824;4.314;2022-07-10T09:49:49;23.70;53.40
38406;DHT22;24186;50.824;4.314;2022-07-10T09:52:17;23.60;53.20
38406;DHT22;24186;50.824;4.314;2022-07-10T09:54:44;23.70;53.20
38406;DHT22;24186;50.824;4.314;2022-07-10T09:57:13;23.60;53.20
38406;DHT22;24186;50.824;4.314;2022-07-10T09:59:40;23.60;53.20
38406;DHT22;24186;50.824;4.314;2022-07-10T10:02:07;23.60;53.20
38406;DHT22;24186;50.824;4.314;2022-07-10T10:04:36;23.60;53.30
38406;DHT22;24186;50.824;4.314;2022-07-10T10:07:04;23.60;53.30
38406;DHT22;24186;50.824;4.314;2022-07-10T10:09:37;23.60;53.30
38406;DHT22;24186;50.824;4.314;2022-07-10T10:12:07;23.60;53.40
38406;DHT22;24186;50.824;4.314;2022-07-10T10:14:34;23.60;53.40
38406;DHT22;24186;50.824;4.314;2022-07-10T10:17:01;23.60;53.40
38406;DHT22;24186;50.824;4.314;2022-07-10T10:19:30;23.60;53.40
38406;DHT22;24186;50.824;4.314;2022-07-10T10:22:18;23.60;53.40
38406;DHT22;24186;50.824;4.314;2022-07-10T10:24:45;23.60;53.40
38406;DHT22;24186;50.824;4.314;2022-07-10T10:27:12;23.60;53.40
38406;DHT22;24186;50.824;4.314;2022-07-10T10:29:39;23.60;53.40
38406;DHT22;24186;50.824;4.314;2022-07-10T10:32:07;23.70;53.50
38406;DHT22;24186;50.824;4.314;2022-07-10T10:34:53;23.70;53.40
38406;DHT22;24186;50.824;4.314;2022-07-10T10:37:37;23.70;53.40
38406;DHT22;24186;50.824;4.314;2022-07-10T10:40:09;23.60;53.40
38406;DHT22;24186;50.824;4.314;2022-07-10T10:42:43;23.70;54.00
38406;DHT22;24186;50.824;4.314;2022-07-10T10:45:31;23.70;53.50
38406;DHT22;24186;50.824;4.314;2022-07-10T10:48:02;23.70;53.50
38406;DHT22;24186;50.824;4.314;2022-07-10T10:50:51;23.70;53.40
38406;DHT22;24186;50.824;4.314;2022-07-10T10:53:25;23.60;53.40
38406;DHT22;24186;50.824;4.314;2022-07-10T10:58:41;23.70;53.40
38406;DHT22;24186;50.824;4.314;2022-07-10T11:09:31;23.70;53.50
38406;DHT22;24186;50.824;4.314;2022-07-10T11:12:04;23.70;53.50
38406;DHT22;24186;50.824;4.314;2022-07-10T11:14:32;23.70;53.50
38406;DHT22;24186;50.824;4.314;2022-07-10T11:16:59;23.70;53.50
38406;DHT22;24186;50.824;4.314;2022-07-10T11:19:29;23.70;53.50
38406;DHT22;24186;50.824;4.314;2022-07-10T11:22:03;23.70;53.50
38406;DHT22;24186;50.824;4.314;2022-07-10T11:28:06;23.70;53.50
38406;DHT22;24186;50.824;4.314;2022-07-10T11:30:47;23.70;53.50
38406;DHT22;24186;50.824;4.314;2022-07-10T11:33:15;23.70;53.50
38406;DHT22;24186;50.824;4.314;2022-07-10T11:35:44;23.70;53.50
38406;DHT22;24186;50.824;4.314;2022-07-10T11:38:10;23.70;53.50
38406;DHT22;24186;50.824;4.314;2022-07-10T11:40:36;23.70;53.50
38406;DHT22;24186;50.824;4.314;2022-07-10T11:43:05;23.70;53.50
38406;DHT22;24186;50.824;4.314;2022-07-10T11:45:34;23.70;53.50
38406;DHT22;24186;50.824;4.314;2022-07-10T11:48:04;23.70;53.50
38406;DHT22;24186;50.824;4.314;2022-07-10T11:50:37;23.70;53.50
38406;DHT22;24186;50.824;4.314;2022-07-10T11:53:04;23.70;53.50
38406;DHT22;24186;50.824;4.314;2022-07-10T11:55:30;23.70;53.50
38406;DHT22;24186;50.824;4.314;2022-07-10T11:58:12;23.70;53.50
38406;DHT22;24186;50.824;4.314;2022-07-10T12:00:38;23.70;53.50
38406;DHT22;24186;50.824;4.314;2022-07-10T12:03:18;23.70;53.50
38406;DHT22;24186;50.824;4.314;2022-07-10T12:05:46;23.70;53.50
38406;DHT22;24186;50.824;4.314;2022-07-10T12:08:11;23.80;53.50
38406;DHT22;24186;50.824;4.314;2022-07-10T12:10:39;23.70;53.50
38406;DHT22;24186;50.824;4.314;2022-07-10T12:13:14;23.70;53.50
38406;DHT22;24186;50.824;4.314;2022-07-10T12:15:45;23.70;53.50
38406;DHT22;24186;50.824;4.314;2022-07-10T12:18:19;23.70;53.50
38406;DHT22;24186;50.824;4.314;2022-07-10T12:20:46;23.70;53.50
38406;DHT22;24186;50.824;4.314;2022-07-10T12:23:15;23.70;53.50
38406;DHT22;24186;50.824;4.314;2022-07-10T12:25:46;23.70;53.50
38406;DHT22;24186;50.824;4.314;2022-07-10T12:28:13;23.70;53.50
38406;DHT22;24186;50.824;4.314;2022-07-10T12:30:41;23.80;53.50
38406;DHT22;24186;50.824;4.314;2022-07-10T12:33:19;23.70;53.50
38406;DHT22;24186;50.824;4.314;2022-07-10T12:35:55;23.80;53.50
38406;DHT22;24186;50.824;4.314;2022-07-10T12:38:29;23.80;53.50
38406;DHT22;24186;50.824;4.314;2022-07-10T12:41:09;23.70;53.50
38406;DHT22;24186;50.824;4.314;2022-07-10T12:43:36;23.80;53.50
38406;DHT22;24186;50.824;4.314;2022-07-10T12:46:16;23.70;53.50
38406;DHT22;24186;50.824;4.314;2022-07-10T12:49:00;23.80;53.50
38406;DHT22;24186;50.824;4.314;2022-07-10T12:51:28;23.80;53.50
38406;DHT22;24186;50.824;4.314;2022-07-10T12:53:54;23.80;53.50
38406;DHT22;24186;50.824;4.314;2022-07-10T12:56:36;23.80;53.50
38406;DHT22;24186;50.824;4.314;2022-07-10T12:59:11;23.70;53.40
38406;DHT22;24186;50.824;4.314;2022-07-10T13:01:43;23.80;53.50
38406;DHT22;24186;50.824;4.314;2022-07-10T13:04:09;23.80;53.50
38406;DHT22;24186;50.824;4.314;2022-07-10T13:06:35;23.80;53.50
38406;DHT22;24186;50.824;4.314;2022-07-10T13:09:02;23.80;53.50
38406;DHT22;24186;50.824;4.314;2022-07-10T13:11:28;23.80;53.50
38406;DHT22;24186;50.824;4.314;2022-07-10T13:13:54;23.80;53.50
38406;DHT22;24186;50.824;4.314;2022-07-10T13:16:21;23.80;53.50
38406;DHT22;24186;50.824;4.314;2022-07-10T13:18:47;23.80;53.50
38406;DHT22;24186;50.824;4.314;2022-07-10T13:21:13;23.80;53.50
38406;DHT22;24186;50.824;4.314;2022-07-10T13:23:39;23.80;53.50
38406;DHT22;24186;50.824;4.314;2022-07-10T13:26:05;23.80;53.50
38406;DHT22;24186;50.824;4.314;2022-07-10T13:28:34;23.80;53.50
38406;DHT22;24186;50.824;4.314;2022-07-10T13:31:00;23.80;53.50
38406;DHT22;24186;50.824;4.314;2022-07-10T13:33:26;23.80;53.50
38406;DHT22;24186;50.824;4.314;2022-07-10T13:35:53;23.80;53.50
38406;DHT22;24186;50.824;4.314;2022-07-10T13:38:19;23.80;53.50
38406;DHT22;24186;50.824;4.314;2022-07-10T13:40:46;23.80;53.50
38406;DHT22;24186;50.824;4.314;2022-07-10T13:43:13;23.80;53.50
38406;DHT22;24186;50.824;4.314;2022-07-10T13:45:41;23.80;53.50
38406;DHT22;24186;50.824;4.314;2022-07-10T13:48:12;23.80;53.50
38406;DHT22;24186;50.824;4.314;2022-07-10T13:50:41;23.80;53.50
38406;DHT22;24186;50.824;4.314;2022-07-10T13:53:07;23.80;53.50
38406;DHT22;24186;50.824;4.314;2022-07-10T13:55:34;23.80;53.50
38406;DHT22;24186;50.824;4.314;2022-07-10T13:58:00;23.80;53.50
38406;DHT22;24186;50.824;4.314;2022-07-10T14:00:26;23.80;53.50
38406;DHT22;24186;50.824;4.314;2022-07-10T14:02:52;23.80;53.50
38406;DHT22;24186;50.824;4.314;2022-07-10T14:05:22;23.80;53.50
38406;DHT22;24186;50.824;4.314;2022-07-10T14:07:48;23.80;53.50
38406;DHT22;24186;50.824;4.314;2022-07-10T14:10:13;23.80;53.50
38406;DHT22;24186;50.824;4.314;2022-07-10T14:12:40;23.80;53.40
38406;DHT22;24186;50.824;4.314;2022-07-10T14:15:06;23.80;53.50
38406;DHT22;24186;50.824;4.314;2022-07-10T14:17:32;23.80;53.40
38406;DHT22;24186;50.824;4.314;2022-07-10T14:19:58;23.80;53.40
38406;DHT22;24186;50.824;4.314;2022-07-10T14:22:23;23.80;53.50
38406;DHT22;24186;50.824;4.314;2022-07-10T14:24:50;23.80;53.40
38406;DHT22;24186;50.824;4.314;2022-07-10T14:27:17;23.80;53.50
38406;DHT22;24186;50.824;4.314;2022-07-10T14:29:43;23.80;53.50
38406;DHT22;24186;50.824;4.314;2022-07-10T14:32:09;23.80;53.40
38406;DHT22;24186;50.824;4.314;2022-07-10T14:34:34;23.80;53.40
38406;DHT22;24186;50.824;4.314;2022-07-10T14:37:01;23.90;53.50
38406;DHT22;24186;50.824;4.314;2022-07-10T14:39:27;23.80;53.50
38406;DHT22;24186;50.824;4.314;2022-07-10T14:41:53;23.80;53.50
38406;DHT22;24186;50.824;4.314;2022-07-10T14:44:18;23.80;53.40
38406;DHT22;24186;50.824;4.314;2022-07-10T14:46:44;23.80;53.40
38406;DHT22;24186;50.824;4.314;2022-07-10T14:49:10;23.80;53.40
38406;DHT22;24186;50.824;4.314;2022-07-10T14:51:36;23.80;53.40
38406;DHT22;24186;50.824;4.314;2022-07-10T14:54:02;23.80;53.40
38406;DHT22;24186;50.824;4.314;2022-07-10T14:56:28;23.80;53.40
38406;DHT22;24186;50.824;4.314;2022-07-10T14:58:54;23.90;53.50
38406;DHT22;24186;50.824;4.314;2022-07-10T15:01:20;23.90;53.50
38406;DHT22;24186;50.824;4.314;2022-07-10T15:03:45;23.90;53.40
38406;DHT22;24186;50.824;4.314;2022-07-10T15:06:11;23.90;53.50
38406;DHT22;24186;50.824;4.314;2022-07-10T15:08:37;23.80;53.40
38406;DHT22;24186;50.824;4.314;2022-07-10T15:11:03;23.90;53.50
38406;DHT22;24186;50.824;4.314;2022-07-10T15:13:30;23.90;53.50
38406;DHT22;24186;50.824;4.314;2022-07-10T15:15:56;23.90;53.40
38406;DHT22;24186;50.824;4.314;2022-07-10T15:18:22;23.90;53.40
38406;DHT22;24186;50.824;4.314;2022-07-10T15:20:48;23.90;53.40
38406;DHT22;24186;50.824;4.314;2022-07-10T15:23:14;23.90;53.40
38406;DHT22;24186;50.824;4.314;2022-07-10T15:25:41;23.90;53.40
38406;DHT22;24186;50.824;4.314;2022-07-10T15:28:07;23.90;53.40
38406;DHT22;24186;50.824;4.314;2022-07-10T15:30:34;23.90;53.40
38406;DHT22;24186;50.824;4.314;2022-07-10T15:33:01;23.90;53.40
38406;DHT22;24186;50.824;4.314;2022-07-10T15:35:27;23.90;53.40
38406;DHT22;24186;50.824;4.314;2022-07-10T15:37:52;23.90;53.40
38406;DHT22;24186;50.824;4.314;2022-07-10T15:40:18;23.90;53.40
38406;DHT22;24186;50.824;4.314;2022-07-10T15:42:44;23.90;53.40
38406;DHT22;24186;50.824;4.314;2022-07-10T15:45:10;23.90;53.40
38406;DHT22;24186;50.824;4.314;2022-07-10T15:47:36;23.90;53.40
38406;DHT22;24186;50.824;4.314;2022-07-10T15:50:02;23.90;53.40
38406;DHT22;24186;50.824;4.314;2022-07-10T15:52:28;23.90;53.40
38406;DHT22;24186;50.824;4.314;2022-07-10T15:54:54;23.90;53.40